Time;durP1;ratioP1;P1;durP2;ratioP2;P2;SDS_P1;SDS_P2;PMS_P1;PMS_P2;Temp;Humidity;BMP_temperature;BMP_pressure;BME280_temperature;BME280_humidity;BME280_pressure;Samples;Min_cycle;Max_cycle;Signal;HPM_P1;HPM_P2
2022/11/24 00:00:32;;;;;;;40.88;24.50;;;;;;;;;;5082991;28;20031;-72
2022/11/24 00:03:18;;;;;;;35.50;23.02;;;;;;;;;;5095219;28;20424;-72
2022/11/24 00:06:06;;;;;;;37.28;22.98;;;;;;;;;;5080873;28;20028;-72
2022/11/24 00:08:52;;;;;;;39.85;25.83;;;;;;;;;;5095413;28;20448;-72
2022/11/24 00:11:37;;;;;;;37.10;23.98;;;;;;;;;;5097287;28;20104;-72
2022/11/24 00:14:23;;;;;;;41.78;24.63;;;;;;;;;;5096314;28;20020;-73
2022/11/24 00:17:09;;;;;;;41.55;25.70;;;;;;;;;;5094973;28;20458;-72
2022/11/24 00:19:54;;;;;;;40.33;24.20;;;;;;;;;;5097167;28;20035;-72
2022/11/24 00:22:40;;;;;;;38.05;23.95;;;;;;;;;;5096035;28;20020;-73
2022/11/24 00:25:25;;;;;;;41.50;23.92;;;;;;;;;;5081592;28;20430;-72
2022/11/24 00:28:11;;;;;;;41.17;25.90;;;;;;;;;;5096583;28;20368;-72
2022/11/24 00:30:57;;;;;;;39.90;24.88;;;;;;;;;;5081769;28;20034;-71
2022/11/24 00:33:42;;;;;;;42.15;26.25;;;;;;;;;;5088958;28;20051;-73
2022/11/24 00:36:29;;;;;;;40.13;24.52;;;;;;;;;;5101197;28;20055;-72
2022/11/24 00:39:16;;;;;;;42.67;25.75;;;;;;;;;;5115100;28;20024;-72
2022/11/24 00:42:01;;;;;;;47.08;27.52;;;;;;;;;;5115650;28;20465;-73
2022/11/24 00:44:47;;;;;;;42.08;25.05;;;;;;;;;;5115128;28;20102;-71
2022/11/24 00:47:32;;;;;;;42.80;25.98;;;;;;;;;;5114763;28;20513;-73
2022/11/24 00:50:18;;;;;;;39.83;25.80;;;;;;;;;;5102173;28;20020;-74
2022/11/24 00:53:04;;;;;;;43.78;25.67;;;;;;;;;;5115744;28;20023;-73
2022/11/24 00:55:50;;;;;;;44.38;24.65;;;;;;;;;;5114891;28;20405;-74
2022/11/24 00:58:36;;;;;;;39.85;24.02;;;;;;;;;;5115769;28;20478;-73
2022/11/24 01:01:23;;;;;;;41.53;24.13;;;;;;;;;;5115576;28;20059;-74
2022/11/24 01:04:08;;;;;;;43.17;24.60;;;;;;;;;;5116004;28;20062;-74
2022/11/24 01:06:54;;;;;;;41.88;24.85;;;;;;;;;;5101255;28;20513;-74
2022/11/24 01:09:42;;;;;;;41.53;24.60;;;;;;;;;;5115353;28;20019;-75
2022/11/24 01:12:27;;;;;;;40.85;24.30;;;;;;;;;;5100196;28;20074;-74
2022/11/24 01:15:13;;;;;;;41.35;24.80;;;;;;;;;;5115326;28;20036;-74
2022/11/24 01:17:58;;;;;;;42.53;25.17;;;;;;;;;;5112540;28;20016;-73
2022/11/24 01:20:44;;;;;;;41.08;24.30;;;;;;;;;;5115470;28;20103;-73
2022/11/24 01:23:30;;;;;;;42.33;25.10;;;;;;;;;;5113986;28;20024;-73
2022/11/24 01:26:18;;;;;;;39.58;23.88;;;;;;;;;;5114650;28;20024;-74
2022/11/24 01:29:04;;;;;;;40.70;24.80;;;;;;;;;;5115265;28;20039;-74
2022/11/24 01:31:49;;;;;;;38.15;23.42;;;;;;;;;;5115072;28;20012;-73
2022/11/24 01:34:35;;;;;;;41.03;23.58;;;;;;;;;;5113576;28;20114;-74
2022/11/24 01:37:20;;;;;;;43.05;25.42;;;;;;;;;;5100480;28;20044;-73
2022/11/24 01:40:06;;;;;;;42.80;24.92;;;;;;;;;;5115533;28;20440;-74
2022/11/24 01:42:52;;;;;;;44.70;25.67;;;;;;;;;;5114470;28;20106;-73
2022/11/24 01:45:40;;;;;;;40.75;24.35;;;;;;;;;;5100827;28;20046;-74
2022/11/24 01:48:29;;;;;;;39.92;24.35;;;;;;;;;;5100951;28;20355;-75
2022/11/24 01:51:25;;;;;;;37.67;22.38;;;;;;;;;;5114381;28;20054;-74
2022/11/24 01:54:13;;;;;;;43.72;25.15;;;;;;;;;;5115101;28;20027;-73
2022/11/24 01:57:06;;;;;;;38.58;24.42;;;;;;;;;;5113637;28;20012;-73
2022/11/24 01:59:54;;;;;;;38.08;22.75;;;;;;;;;;5100283;28;20027;-73
2022/11/24 02:02:41;;;;;;;39.63;23.13;;;;;;;;;;5100517;28;20023;-73
2022/11/24 02:05:31;;;;;;;36.55;23.33;;;;;;;;;;5114371;28;20409;-74
2022/11/24 02:08:21;;;;;;;35.10;22.27;;;;;;;;;;5114035;28;20472;-73
2022/11/24 02:11:07;;;;;;;40.13;22.98;;;;;;;;;;5099319;28;20356;-74
2022/11/24 02:13:53;;;;;;;41.40;24.13;;;;;;;;;;5113951;28;20031;-74
2022/11/24 02:16:40;;;;;;;39.10;23.85;;;;;;;;;;5115042;28;20011;-73
2022/11/24 02:19:26;;;;;;;40.97;24.10;;;;;;;;;;5114602;28;20504;-73
2022/11/24 02:22:31;;;;;;;39.08;23.08;;;;;;;;;;5100590;28;20048;-74
2022/11/24 02:25:17;;;;;;;39.67;22.92;;;;;;;;;;5115133;28;20023;-73
2022/11/24 02:28:05;;;;;;;37.92;22.92;;;;;;;;;;5100002;28;20046;-73
2022/11/24 02:30:50;;;;;;;39.92;22.63;;;;;;;;;;5117391;28;20050;-73
2022/11/24 02:33:36;;;;;;;39.58;22.38;;;;;;;;;;5118623;28;20031;-74
2022/11/24 02:36:22;;;;;;;37.22;22.40;;;;;;;;;;5102432;28;20043;-73
2022/11/24 02:39:11;;;;;;;38.08;22.52;;;;;;;;;;5116351;28;20110;-73
2022/11/24 02:41:59;;;;;;;40.28;23.17;;;;;;;;;;5104739;28;20026;-73
2022/11/24 02:44:47;;;;;;;40.10;22.58;;;;;;;;;;5118754;28;20102;-73
2022/11/24 02:47:35;;;;;;;46.15;25.05;;;;;;;;;;5116953;28;20023;-75
2022/11/24 02:50:21;;;;;;;45.80;24.38;;;;;;;;;;5118144;28;20492;-74
2022/11/24 02:53:07;;;;;;;40.45;23.98;;;;;;;;;;5103691;28;20096;-73
2022/11/24 02:55:52;;;;;;;39.00;22.52;;;;;;;;;;5117944;28;20047;-73
2022/11/24 02:58:38;;;;;;;43.65;24.17;;;;;;;;;;5118888;27;20084;-74
2022/11/24 03:01:23;;;;;;;46.20;24.27;;;;;;;;;;5118152;28;20428;-73
2022/11/24 03:04:09;;;;;;;51.10;25.80;;;;;;;;;;5118572;28;20023;-74
2022/11/24 03:06:54;;;;;;;50.67;25.15;;;;;;;;;;5103659;28;20092;-74
2022/11/24 03:09:40;;;;;;;51.97;25.60;;;;;;;;;;5116667;28;20023;-74
2022/11/24 03:12:26;;;;;;;47.83;25.13;;;;;;;;;;5118215;28;20030;-73
2022/11/24 03:15:11;;;;;;;48.22;24.85;;;;;;;;;;5117725;28;20016;-74
2022/11/24 03:17:57;;;;;;;49.83;25.15;;;;;;;;;;5102812;28;20020;-74
2022/11/24 03:20:43;;;;;;;48.03;24.85;;;;;;;;;;5103400;28;20336;-74
2022/11/24 03:23:28;;;;;;;55.35;24.48;;;;;;;;;;5103492;28;20034;-74
2022/11/24 03:26:15;;;;;;;48.63;23.67;;;;;;;;;;5117675;28;20012;-74
2022/11/24 03:29:00;;;;;;;46.30;23.70;;;;;;;;;;5102028;28;20020;-74
2022/11/24 03:31:46;;;;;;;48.88;25.08;;;;;;;;;;5116930;28;20106;-74
2022/11/24 03:34:32;;;;;;;47.42;24.02;;;;;;;;;;5103191;28;20096;-73
2022/11/24 03:37:17;;;;;;;47.05;23.50;;;;;;;;;;5117153;28;20071;-73
2022/11/24 03:40:03;;;;;;;47.20;23.77;;;;;;;;;;5102493;28;20019;-73
2022/11/24 03:42:50;;;;;;;48.97;24.15;;;;;;;;;;5102913;28;20043;-74
2022/11/24 03:45:35;;;;;;;51.47;24.83;;;;;;;;;;5117735;28;20435;-75
2022/11/24 03:48:21;;;;;;;44.00;22.92;;;;;;;;;;5101438;28;20031;-74
2022/11/24 03:51:07;;;;;;;48.55;23.08;;;;;;;;;;5102705;28;20046;-73
2022/11/24 03:53:52;;;;;;;46.60;23.00;;;;;;;;;;5117639;28;20102;-74
2022/11/24 03:56:38;;;;;;;46.22;22.38;;;;;;;;;;5115948;28;20038;-74
2022/11/24 03:59:23;;;;;;;47.25;22.60;;;;;;;;;;5115617;28;20047;-75
2022/11/24 04:02:09;;;;;;;51.80;22.83;;;;;;;;;;5116460;28;20366;-74
2022/11/24 04:04:55;;;;;;;55.65;25.55;;;;;;;;;;5116059;28;20521;-75
2022/11/24 04:07:40;;;;;;;52.33;23.58;;;;;;;;;;5115963;28;20039;-75
2022/11/24 04:10:26;;;;;;;55.47;24.42;;;;;;;;;;5101827;28;20035;-75
2022/11/24 04:13:13;;;;;;;47.67;22.73;;;;;;;;;;5115677;28;20008;-73
2022/11/24 04:15:58;;;;;;;50.10;23.20;;;;;;;;;;5101144;28;20016;-75
2022/11/24 04:18:44;;;;;;;49.92;23.02;;;;;;;;;;5102142;28;20479;-73
2022/11/24 04:21:29;;;;;;;50.75;22.23;;;;;;;;;;5101407;28;20038;-74
2022/11/24 04:24:15;;;;;;;51.28;22.02;;;;;;;;;;5115991;28;20027;-74
2022/11/24 04:27:01;;;;;;;46.53;21.75;;;;;;;;;;5115463;28;20019;-74
2022/11/24 04:29:46;;;;;;;44.33;21.65;;;;;;;;;;5116611;28;20366;-74
2022/11/24 04:32:32;;;;;;;55.25;23.48;;;;;;;;;;5116682;28;20080;-74
2022/11/24 04:35:18;;;;;;;46.40;20.92;;;;;;;;;;5114937;28;20050;-73
2022/11/24 04:38:03;;;;;;;49.35;22.45;;;;;;;;;;5115827;28;20138;-74
2022/11/24 04:40:49;;;;;;;48.72;21.23;;;;;;;;;;5116586;28;20100;-74
2022/11/24 04:43:35;;;;;;;41.17;20.50;;;;;;;;;;5115056;28;20020;-74
2022/11/24 04:46:20;;;;;;;46.28;21.00;;;;;;;;;;5116194;28;20043;-74
2022/11/24 04:49:10;;;;;;;47.95;21.45;;;;;;;;;;5115140;28;20020;-75
2022/11/24 04:51:56;;;;;;;44.58;20.73;;;;;;;;;;5115209;28;20023;-75
2022/11/24 04:54:41;;;;;;;45.75;20.73;;;;;;;;;;5116367;28;20432;-74
2022/11/24 04:57:27;;;;;;;48.65;23.58;;;;;;;;;;5116073;28;20023;-74
2022/11/24 05:00:13;;;;;;;45.83;20.83;;;;;;;;;;5114547;28;20160;-74
2022/11/24 05:02:58;;;;;;;46.97;20.95;;;;;;;;;;5114868;28;20035;-75
2022/11/24 05:05:44;;;;;;;45.35;21.17;;;;;;;;;;5100817;28;20080;-74
2022/11/24 05:08:29;;;;;;;45.63;22.85;;;;;;;;;;5115489;28;20452;-74
2022/11/24 05:11:15;;;;;;;43.75;20.77;;;;;;;;;;5115293;28;20023;-75
2022/11/24 05:14:01;;;;;;;38.92;20.13;;;;;;;;;;5115064;28;20027;-75
2022/11/24 05:16:46;;;;;;;41.47;19.85;;;;;;;;;;5101266;28;20022;-73
2022/11/24 05:19:32;;;;;;;36.17;19.63;;;;;;;;;;5115052;28;20020;-73
2022/11/24 05:22:17;;;;;;;34.88;18.25;;;;;;;;;;5114440;28;20019;-73
2022/11/24 05:25:03;;;;;;;34.00;17.90;;;;;;;;;;5115172;28;20032;-73
2022/11/24 05:27:49;;;;;;;38.15;18.63;;;;;;;;;;5122421;28;20030;-73
2022/11/24 05:30:38;;;;;;;34.67;17.13;;;;;;;;;;5116532;28;20077;-73
2022/11/24 05:33:23;;;;;;;31.73;16.45;;;;;;;;;;5099420;28;20019;-73
2022/11/24 05:36:51;;;;;;;31.05;16.42;;;;;;;;;;5113813;28;20081;-73
2022/11/24 05:39:14;;;;;;;32.22;16.25;;;;;;;;;;5115299;28;20081;-73
2022/11/24 05:42:39;;;;;;;32.83;16.10;;;;;;;;;;5100124;28;20035;-73
2022/11/24 05:45:11;;;;;;;28.52;16.45;;;;;;;;;;5114613;28;20020;-73
2022/11/24 05:48:02;;;;;;;27.98;15.63;;;;;;;;;;5115398;28;20449;-72
2022/11/24 05:50:52;;;;;;;28.90;14.80;;;;;;;;;;5114788;28;20020;-73
2022/11/24 05:53:37;;;;;;;25.98;14.77;;;;;;;;;;5115344;28;20104;-74
2022/11/24 05:56:23;;;;;;;30.98;15.20;;;;;;;;;;5114634;28;20028;-73
2022/11/24 05:59:08;;;;;;;28.85;15.82;;;;;;;;;;5113958;28;20146;-73
2022/11/24 06:01:54;;;;;;;24.90;14.00;;;;;;;;;;5114190;28;20038;-73
2022/11/24 06:04:40;;;;;;;24.67;14.48;;;;;;;;;;5114670;28;20027;-73
2022/11/24 06:07:25;;;;;;;26.17;14.05;;;;;;;;;;5114215;28;20092;-74
2022/11/24 06:10:11;;;;;;;25.50;13.50;;;;;;;;;;5113795;28;20032;-74
2022/11/24 06:12:57;;;;;;;30.50;15.70;;;;;;;;;;5116119;28;20012;-73
2022/11/24 06:15:42;;;;;;;23.08;14.18;;;;;;;;;;5118569;28;20016;-74
2022/11/24 06:18:28;;;;;;;24.70;15.15;;;;;;;;;;5104440;28;20052;-74
2022/11/24 06:21:13;;;;;;;23.55;14.27;;;;;;;;;;5118106;28;20029;-74
2022/11/24 06:23:59;;;;;;;25.48;13.63;;;;;;;;;;5118568;28;20051;-73
2022/11/24 06:26:44;;;;;;;24.02;14.43;;;;;;;;;;5117717;28;20027;-74
2022/11/24 06:29:30;;;;;;;27.98;15.60;;;;;;;;;;5104029;28;20023;-74
2022/11/24 06:32:16;;;;;;;30.67;15.55;;;;;;;;;;5118169;28;20463;-74
2022/11/24 06:35:01;;;;;;;25.25;14.75;;;;;;;;;;5118939;28;20428;-74
2022/11/24 06:37:47;;;;;;;26.88;14.93;;;;;;;;;;5117633;28;20067;-73
2022/11/24 06:40:32;;;;;;;29.35;15.13;;;;;;;;;;5103802;28;20108;-74
2022/11/24 06:43:18;;;;;;;27.00;15.35;;;;;;;;;;5118660;28;20111;-74
2022/11/24 06:46:04;;;;;;;26.92;15.05;;;;;;;;;;5118375;28;20016;-74
2022/11/24 06:48:50;;;;;;;28.35;15.63;;;;;;;;;;5104310;28;20026;-73
2022/11/24 06:51:36;;;;;;;27.60;14.20;;;;;;;;;;5105043;28;20031;-74
2022/11/24 06:54:21;;;;;;;23.02;13.20;;;;;;;;;;5117474;28;20227;-74
2022/11/24 06:57:07;;;;;;;23.90;12.63;;;;;;;;;;5118023;28;20031;-73
2022/11/24 06:59:52;;;;;;;25.63;12.73;;;;;;;;;;5103764;28;20028;-75
2022/11/24 07:02:38;;;;;;;22.83;12.15;;;;;;;;;;5104125;28;20448;-74
2022/11/24 07:05:24;;;;;;;19.30;10.90;;;;;;;;;;5117944;28;20120;-74
2022/11/24 07:08:10;;;;;;;26.42;15.13;;;;;;;;;;5116976;28;20012;-74
2022/11/24 07:10:55;;;;;;;32.78;16.15;;;;;;;;;;5117767;28;20020;-75
2022/11/24 07:13:41;;;;;;;33.25;16.75;;;;;;;;;;5118088;28;20015;-74
2022/11/24 07:16:27;;;;;;;31.75;16.33;;;;;;;;;;5117354;28;20076;-74
2022/11/24 07:19:13;;;;;;;30.77;16.88;;;;;;;;;;5117551;28;20039;-74
2022/11/24 07:21:59;;;;;;;31.98;17.98;;;;;;;;;;5117904;28;20034;-73
2022/11/24 07:24:44;;;;;;;28.90;18.08;;;;;;;;;;5116466;28;20016;-73
2022/11/24 07:27:30;;;;;;;26.10;13.98;;;;;;;;;;5116840;28;20429;-74
2022/11/24 07:30:16;;;;;;;23.52;13.00;;;;;;;;;;5103778;28;20028;-74
2022/11/24 07:33:01;;;;;;;25.90;14.32;;;;;;;;;;5103294;28;20367;-73
2022/11/24 07:35:47;;;;;;;26.33;14.85;;;;;;;;;;5116274;28;20023;-73
2022/11/24 07:38:33;;;;;;;26.15;14.52;;;;;;;;;;5117108;28;20102;-74
2022/11/24 07:41:19;;;;;;;27.52;15.35;;;;;;;;;;5117412;28;20019;-74
2022/11/24 07:44:05;;;;;;;26.52;14.40;;;;;;;;;;5117354;28;20031;-74
2022/11/24 07:46:51;;;;;;;32.38;16.38;;;;;;;;;;5116891;28;20028;-73
2022/11/24 07:49:36;;;;;;;31.35;18.08;;;;;;;;;;5102915;28;20023;-75
2022/11/24 07:52:25;;;;;;;35.63;17.25;;;;;;;;;;5101978;28;20023;-73
2022/11/24 07:55:11;;;;;;;36.75;16.80;;;;;;;;;;5117185;28;20011;-73
2022/11/24 07:57:59;;;;;;;36.20;16.38;;;;;;;;;;5116549;28;20355;-73
2022/11/24 08:00:45;;;;;;;42.40;18.00;;;;;;;;;;5116854;28;20031;-73
2022/11/24 08:03:30;;;;;;;40.88;18.17;;;;;;;;;;5116218;28;20015;-74
2022/11/24 08:06:17;;;;;;;38.47;17.05;;;;;;;;;;5102996;28;20042;-74
2022/11/24 08:09:03;;;;;;;36.03;16.55;;;;;;;;;;5116523;28;20431;-73
2022/11/24 08:11:48;;;;;;;39.35;17.55;;;;;;;;;;5116735;28;20435;-74
2022/11/24 08:14:34;;;;;;;34.67;16.33;;;;;;;;;;5116322;28;20111;-73
2022/11/24 08:17:19;;;;;;;35.00;16.63;;;;;;;;;;5102383;28;20027;-75
2022/11/24 08:20:05;;;;;;;34.03;16.15;;;;;;;;;;5117379;27;20034;-74
2022/11/24 08:22:55;;;;;;;33.10;14.93;;;;;;;;;;5116469;28;20103;-74
2022/11/24 08:25:40;;;;;;;36.85;18.52;;;;;;;;;;5118996;28;20038;-72
2022/11/24 08:28:26;;;;;;;22.35;13.60;;;;;;;;;;5116195;28;20020;-73
2022/11/24 08:31:14;;;;;;;21.75;12.85;;;;;;;;;;5102431;28;20030;-73
2022/11/24 08:34:00;;;;;;;21.30;11.40;;;;;;;;;;5116438;28;20019;-73
2022/11/24 08:36:45;;;;;;;17.67;10.30;;;;;;;;;;5100649;28;20047;-73
2022/11/24 08:39:31;;;;;;;22.95;10.63;;;;;;;;;;5114666;28;20159;-73
2022/11/24 08:42:17;;;;;;;19.35;10.60;;;;;;;;;;5114938;28;20439;-73
2022/11/24 08:45:03;;;;;;;18.58;10.63;;;;;;;;;;5102170;28;20031;-73
2022/11/24 08:47:52;;;;;;;20.38;11.10;;;;;;;;;;5115863;28;20023;-73
2022/11/24 08:50:38;;;;;;;21.92;12.20;;;;;;;;;;5115601;28;20081;-73
2022/11/24 08:53:24;;;;;;;20.42;11.10;;;;;;;;;;5115237;28;20027;-73
2022/11/24 08:56:10;;;;;;;22.95;11.23;;;;;;;;;;5115587;28;20080;-73
2022/11/24 08:58:56;;;;;;;21.77;11.68;;;;;;;;;;5116034;28;20458;-73
2022/11/24 09:01:42;;;;;;;25.20;12.85;;;;;;;;;;5117350;28;20020;-73
2022/11/24 09:04:27;;;;;;;26.63;14.02;;;;;;;;;;5115761;28;20432;-72
2022/11/24 09:07:13;;;;;;;26.42;13.95;;;;;;;;;;5115215;28;20455;-72
2022/11/24 09:09:58;;;;;;;26.80;14.45;;;;;;;;;;5116026;28;20027;-72
2022/11/24 09:12:45;;;;;;;21.75;12.80;;;;;;;;;;5101654;28;20361;-73
2022/11/24 09:15:30;;;;;;;23.77;13.52;;;;;;;;;;5115324;28;20015;-71
2022/11/24 09:18:16;;;;;;;25.65;14.15;;;;;;;;;;5100512;28;20026;-72
2022/11/24 09:21:09;;;;;;;30.10;14.95;;;;;;;;;;5114608;28;20026;-73
2022/11/24 09:23:54;;;;;;;29.73;16.15;;;;;;;;;;5114628;28;20019;-72
2022/11/24 09:26:40;;;;;;;28.88;15.55;;;;;;;;;;5115721;28;20023;-72
2022/11/24 09:29:25;;;;;;;31.90;16.83;;;;;;;;;;5101243;28;20104;-71
2022/11/24 09:32:11;;;;;;;23.65;13.25;;;;;;;;;;5114702;28;20030;-73
2022/11/24 09:34:56;;;;;;;23.77;13.27;;;;;;;;;;5115036;28;20051;-73
2022/11/24 09:37:44;;;;;;;26.33;14.43;;;;;;;;;;5114519;28;20528;-72
2022/11/24 09:40:31;;;;;;;31.48;15.35;;;;;;;;;;5101290;28;20130;-73
2022/11/24 09:43:25;;;;;;;25.70;13.85;;;;;;;;;;5114844;28;20092;-72
2022/11/24 09:46:18;;;;;;;28.38;14.82;;;;;;;;;;5114831;28;20032;-74
2022/11/24 09:49:05;;;;;;;36.15;17.50;;;;;;;;;;5113967;28;20057;-72
2022/11/24 09:51:52;;;;;;;31.15;16.02;;;;;;;;;;5114908;28;20016;-73
2022/11/24 09:54:44;;;;;;;29.70;15.68;;;;;;;;;;5114732;28;20329;-73
2022/11/24 09:57:34;;;;;;;36.38;18.85;;;;;;;;;;5100969;28;20065;-73
2022/11/24 10:00:19;;;;;;;35.65;18.75;;;;;;;;;;5100888;28;20098;-79
2022/11/24 10:03:09;;;;;;;34.40;18.05;;;;;;;;;;5100868;28;20040;-73
2022/11/24 10:05:54;;;;;;;35.55;18.33;;;;;;;;;;5114342;28;20030;-73
2022/11/24 10:08:43;;;;;;;36.60;18.58;;;;;;;;;;5114342;28;20035;-74
2022/11/24 10:11:37;;;;;;;34.05;18.00;;;;;;;;;;5114424;28;20016;-73
2022/11/24 10:14:41;;;;;;;34.38;18.30;;;;;;;;;;5114942;28;20405;-73
2022/11/24 10:17:53;;;;;;;35.65;18.85;;;;;;;;;;5114583;28;20133;-73
2022/11/24 10:20:58;;;;;;;33.78;18.33;;;;;;;;;;5115852;28;20455;-74
2022/11/24 10:24:01;;;;;;;35.78;20.27;;;;;;;;;;5100381;28;20055;-74
2022/11/24 10:26:53;;;;;;;38.03;20.23;;;;;;;;;;5100710;28;20115;-73
2022/11/24 10:29:39;;;;;;;36.63;20.77;;;;;;;;;;5114344;28;20386;-74
2022/11/24 10:32:34;;;;;;;35.92;19.27;;;;;;;;;;5113959;28;20020;-73
2022/11/24 10:35:27;;;;;;;35.53;19.25;;;;;;;;;;5114506;28;20032;-73
2022/11/24 10:38:18;;;;;;;35.03;18.70;;;;;;;;;;5114328;28;20464;-72
2022/11/24 10:41:06;;;;;;;31.88;18.40;;;;;;;;;;5114282;28;20023;-73
2022/11/24 10:43:52;;;;;;;32.03;17.48;;;;;;;;;;5114455;28;20020;-74
2022/11/24 10:46:37;;;;;;;35.63;17.75;;;;;;;;;;5100293;28;20024;-73
2022/11/24 10:49:26;;;;;;;37.10;18.95;;;;;;;;;;5112938;28;20032;-73
2022/11/24 10:52:13;;;;;;;37.20;19.45;;;;;;;;;;5116386;28;20112;-74
2022/11/24 10:55:00;;;;;;;39.83;20.63;;;;;;;;;;5100404;28;20020;-73
2022/11/24 10:57:45;;;;;;;35.10;19.35;;;;;;;;;;5112993;28;20047;-73
2022/11/24 11:00:33;;;;;;;35.00;20.70;;;;;;;;;;5116469;28;20452;-73
2022/11/24 11:03:20;;;;;;;34.90;18.70;;;;;;;;;;5103913;28;20419;-74
2022/11/24 11:06:10;;;;;;;27.20;17.42;;;;;;;;;;5117777;28;20035;-76
2022/11/24 11:09:17;;;;;;;21.50;14.20;;;;;;;;;;5118649;28;20024;-73
2022/11/24 11:12:29;;;;;;;13.02;9.30;;;;;;;;;;5117990;28;20020;-73
2022/11/24 11:15:23;;;;;;;7.53;5.72;;;;;;;;;;5117135;28;20345;-73
2022/11/24 11:18:13;;;;;;;6.45;4.82;;;;;;;;;;5117429;28;20031;-73
2022/11/24 11:21:03;;;;;;;5.25;4.05;;;;;;;;;;5116206;28;20432;-74
2022/11/24 11:23:50;;;;;;;4.15;3.67;;;;;;;;;;5115968;28;20098;-73
2022/11/24 11:26:36;;;;;;;4.55;3.13;;;;;;;;;;5117709;28;20018;-74
2022/11/24 11:29:24;;;;;;;4.90;2.60;;;;;;;;;;5118652;28;20172;-76
2022/11/24 11:32:19;;;;;;;3.53;2.80;;;;;;;;;;5117020;28;20386;-74
2022/11/24 11:35:04;;;;;;;4.60;2.50;;;;;;;;;;5116539;28;20444;-73
2022/11/24 11:37:51;;;;;;;3.63;2.90;;;;;;;;;;5116363;28;20043;-73
2022/11/24 11:40:38;;;;;;;4.80;3.00;;;;;;;;;;5103224;28;20439;-74
2022/11/24 11:43:25;;;;;;;4.30;3.35;;;;;;;;;;5116322;28;20031;-74
2022/11/24 11:46:12;;;;;;;4.78;3.63;;;;;;;;;;5116241;28;20440;-73
2022/11/24 11:48:58;;;;;;;5.57;3.67;;;;;;;;;;5116011;28;20023;-74
2022/11/24 11:51:51;;;;;;;5.80;4.43;;;;;;;;;;5116809;28;20396;-73
2022/11/24 11:54:56;;;;;;;6.45;3.90;;;;;;;;;;5116669;28;20031;-74
2022/11/24 11:57:49;;;;;;;7.60;4.13;;;;;;;;;;5101731;28;20081;-74
2022/11/24 12:00:38;;;;;;;9.43;5.85;;;;;;;;;;5115661;28;20020;-74
2022/11/24 12:03:42;;;;;;;6.45;4.75;;;;;;;;;;5115518;28;20102;-74
2022/11/24 12:06:50;;;;;;;8.73;4.93;;;;;;;;;;5115638;28;20448;-73
2022/11/24 12:09:35;;;;;;;7.15;5.38;;;;;;;;;;5103458;28;20023;-73
2022/11/24 12:12:27;;;;;;;6.70;5.00;;;;;;;;;;5102087;28;20007;-73
2022/11/24 12:15:28;;;;;;;7.43;5.18;;;;;;;;;;5116541;28;20023;-74
2022/11/24 12:18:37;;;;;;;9.20;5.70;;;;;;;;;;5115683;28;20305;-73
2022/11/24 12:21:23;;;;;;;11.88;7.28;;;;;;;;;;5115566;28;20020;-73
2022/11/24 12:24:22;;;;;;;8.88;6.43;;;;;;;;;;5116276;28;20024;-73
2022/11/24 12:27:17;;;;;;;8.68;6.00;;;;;;;;;;5101509;28;20413;-74
2022/11/24 12:30:11;;;;;;;10.43;6.10;;;;;;;;;;5115699;28;20046;-73
2022/11/24 12:33:08;;;;;;;8.18;6.43;;;;;;;;;;5115476;28;20015;-74
2022/11/24 12:36:03;;;;;;;11.73;6.65;;;;;;;;;;5100816;28;20023;-73
2022/11/24 12:38:55;;;;;;;9.05;6.75;;;;;;;;;;5116012;28;20046;-73
2022/11/24 12:41:41;;;;;;;9.00;6.78;;;;;;;;;;5115932;28;20019;-74
2022/11/24 12:44:34;;;;;;;9.23;6.45;;;;;;;;;;5117035;28;20084;-73
2022/11/24 12:47:52;;;;;;;9.15;6.80;;;;;;;;;;5101991;28;20329;-70
2022/11/24 12:50:38;;;;;;;9.25;7.32;;;;;;;;;;5074633;28;20042;-72
2022/11/24 12:53:26;;;;;;;8.60;5.97;;;;;;;;;;5115050;28;20103;-72
2022/11/24 12:56:14;;;;;;;10.18;6.60;;;;;;;;;;5114661;28;20409;-79
2022/11/24 12:59:15;;;;;;;9.50;6.65;;;;;;;;;;5117880;28;20444;-74
2022/11/24 13:02:06;;;;;;;10.20;6.70;;;;;;;;;;5100996;28;20016;-75
2022/11/24 13:05:01;;;;;;;9.60;6.75;;;;;;;;;;5114556;28;20146;-74
2022/11/24 13:07:54;;;;;;;9.18;6.78;;;;;;;;;;5114437;28;20038;-73
2022/11/24 13:10:40;;;;;;;9.38;7.20;;;;;;;;;;5115680;28;20019;-75
2022/11/24 13:13:28;;;;;;;10.45;6.85;;;;;;;;;;5116342;28;20012;-73
2022/11/24 13:16:14;;;;;;;10.43;7.30;;;;;;;;;;5116187;28;20028;-74
2022/11/24 13:19:06;;;;;;;12.00;8.05;;;;;;;;;;5116032;28;20015;-74
2022/11/24 13:22:07;;;;;;;10.50;8.18;;;;;;;;;;5115668;28;20024;-74
2022/11/24 13:25:09;;;;;;;11.52;7.53;;;;;;;;;;5114908;28;20106;-74
2022/11/24 13:27:58;;;;;;;11.20;8.10;;;;;;;;;;5115198;28;20015;-74
2022/11/24 13:30:44;;;;;;;14.60;9.05;;;;;;;;;;5102357;28;20020;-74
2022/11/24 13:33:30;;;;;;;11.88;8.65;;;;;;;;;;5114983;28;20012;-74
2022/11/24 13:36:21;;;;;;;11.02;8.05;;;;;;;;;;5115438;28;20039;-73
2022/11/24 13:39:17;;;;;;;17.38;8.18;;;;;;;;;;5114023;28;20042;-76
2022/11/24 13:42:03;;;;;;;11.02;8.57;;;;;;;;;;5113333;28;20020;-75
2022/11/24 13:44:49;;;;;;;12.73;7.97;;;;;;;;;;5114678;28;20099;-74
2022/11/24 13:47:34;;;;;;;10.70;7.90;;;;;;;;;;5100214;28;20462;-74
2022/11/24 13:50:22;;;;;;;9.65;7.15;;;;;;;;;;5100268;28;20401;-73
2022/11/24 13:53:09;;;;;;;9.43;6.78;;;;;;;;;;5115308;28;20016;-75
2022/11/24 13:56:12;;;;;;;9.38;7.05;;;;;;;;;;5113785;28;20026;-74
2022/11/24 13:58:59;;;;;;;8.77;6.55;;;;;;;;;;5100369;28;20020;-75
2022/11/24 14:01:55;;;;;;;9.50;6.75;;;;;;;;;;5114042;28;20023;-74
2022/11/24 14:04:42;;;;;;;12.93;7.40;;;;;;;;;;5113735;28;20081;-72
2022/11/24 14:07:28;;;;;;;10.82;7.55;;;;;;;;;;5113266;28;20129;-70
2022/11/24 14:10:19;;;;;;;10.38;7.50;;;;;;;;;;5113496;28;20026;-70
2022/11/24 14:13:23;;;;;;;11.60;8.13;;;;;;;;;;5113706;28;20015;-70
2022/11/24 14:16:09;;;;;;;13.55;8.48;;;;;;;;;;5114305;28;20090;-69
2022/11/24 14:18:54;;;;;;;15.30;8.73;;;;;;;;;;5113346;28;20470;-70
2022/11/24 14:21:40;;;;;;;13.55;8.80;;;;;;;;;;5100234;28;20437;-70
2022/11/24 14:24:32;;;;;;;12.98;8.88;;;;;;;;;;5113524;28;20355;-67
2022/11/24 14:27:20;;;;;;;15.52;9.18;;;;;;;;;;5115374;28;20566;-70
2022/11/24 14:30:06;;;;;;;14.48;8.77;;;;;;;;;;5113814;28;20028;-70
2022/11/24 14:32:55;;;;;;;13.02;8.90;;;;;;;;;;5113757;28;20034;-71
2022/11/24 14:35:43;;;;;;;14.05;8.65;;;;;;;;;;5103075;28;20440;-71
2022/11/24 14:38:28;;;;;;;14.15;8.75;;;;;;;;;;5116092;28;20032;-70
2022/11/24 14:41:24;;;;;;;14.45;8.70;;;;;;;;;;5117283;28;20351;-68
2022/11/24 14:44:12;;;;;;;16.40;10.48;;;;;;;;;;5117729;28;20455;-70
2022/11/24 14:47:02;;;;;;;17.27;9.50;;;;;;;;;;5101677;28;20447;-70
2022/11/24 14:49:49;;;;;;;17.58;9.77;;;;;;;;;;5102745;28;20020;-72
2022/11/24 14:52:34;;;;;;;17.58;9.85;;;;;;;;;;5103387;28;20011;-73
2022/11/24 14:55:25;;;;;;;14.60;9.52;;;;;;;;;;5117799;28;20420;-73
2022/11/24 14:58:26;;;;;;;23.13;9.60;;;;;;;;;;5118052;28;20015;-73
2022/11/24 15:01:20;;;;;;;16.10;10.05;;;;;;;;;;5117629;28;20015;-73
2022/11/24 15:04:19;;;;;;;15.25;9.07;;;;;;;;;;5103994;28;20008;-73
2022/11/24 15:07:16;;;;;;;18.17;10.20;;;;;;;;;;5116906;28;20352;-73
2022/11/24 15:10:03;;;;;;;16.17;9.60;;;;;;;;;;5102793;28;20027;-68
2022/11/24 15:12:51;;;;;;;16.08;9.82;;;;;;;;;;5102951;28;20038;-74
2022/11/24 15:15:37;;;;;;;17.92;9.68;;;;;;;;;;5116945;28;20027;-72
2022/11/24 15:18:43;;;;;;;18.42;9.68;;;;;;;;;;5116712;28;20448;-72
2022/11/24 15:21:32;;;;;;;17.00;9.68;;;;;;;;;;5100962;28;20083;-72
2022/11/24 15:24:18;;;;;;;17.35;10.48;;;;;;;;;;5117461;28;20011;-72
2022/11/24 15:27:04;;;;;;;18.70;10.35;;;;;;;;;;5116875;28;20020;-73
2022/11/24 15:29:49;;;;;;;12.95;9.07;;;;;;;;;;5116506;28;20059;-72
2022/11/24 15:32:35;;;;;;;16.55;9.63;;;;;;;;;;5115950;28;20024;-72
2022/11/24 15:35:22;;;;;;;12.65;8.55;;;;;;;;;;5115876;28;20519;-72
2022/11/24 15:38:07;;;;;;;13.68;8.05;;;;;;;;;;5115146;28;20456;-73
2022/11/24 15:40:54;;;;;;;15.10;8.93;;;;;;;;;;5115776;28;20027;-72
2022/11/24 15:43:40;;;;;;;15.38;10.05;;;;;;;;;;5101628;28;20030;-74
2022/11/24 15:46:26;;;;;;;17.92;9.85;;;;;;;;;;5102412;28;20024;-72
2022/11/24 15:49:11;;;;;;;12.68;8.55;;;;;;;;;;5117208;28;20480;-72
2022/11/24 15:51:57;;;;;;;13.10;9.20;;;;;;;;;;5101860;28;20034;-73
2022/11/24 15:54:43;;;;;;;15.73;10.15;;;;;;;;;;5115912;28;20022;-73
2022/11/24 15:57:28;;;;;;;14.18;9.80;;;;;;;;;;5101201;28;20026;-73
2022/11/24 16:00:18;;;;;;;14.85;9.60;;;;;;;;;;5117317;28;20043;-71
2022/11/24 16:03:04;;;;;;;16.38;10.35;;;;;;;;;;5116316;28;20031;-72
2022/11/24 16:05:52;;;;;;;17.52;11.30;;;;;;;;;;5114638;28;20023;-72
2022/11/24 16:08:37;;;;;;;23.45;14.32;;;;;;;;;;5115723;28;20028;-71
2022/11/24 16:11:23;;;;;;;18.17;10.63;;;;;;;;;;5115561;28;20066;-72
2022/11/24 16:14:08;;;;;;;14.00;10.45;;;;;;;;;;5116183;28;20022;-73
2022/11/24 16:16:54;;;;;;;15.40;10.13;;;;;;;;;;5116696;28;20051;-73
2022/11/24 16:19:39;;;;;;;14.95;9.98;;;;;;;;;;5101008;28;20045;-72
2022/11/24 16:22:25;;;;;;;15.55;10.75;;;;;;;;;;5117048;28;20019;-73